Weerstation

Weerstation

Ons weerstation streamt live data naar onze server. 

Vliegweer

[Source: ADDS]
METAR
EBBR 142020Z 15007KT CAVOK 08/06 Q1024 NOSIG =
EBBR 141720Z 1418/1524 15006KT CAVOK BECMG 1422/1424 2500 BR PROB40 1502/1510 0300 FG BKN001 PROB40 1510/1513 BKN005 BECMG 1513/1515 7000 NSW SCT005
TAF
EBBR 141720Z 1418/1524 15006KT CAVOK BECMG 1422/1424 2500 BR PROB40 1502/1510 0300 FG BKN001 PROB40 1510/1513 BKN005 BECMG 1513/1515 7000 NSW SCT005 =

StormCell is een non profit organisatie zonder oogmerk tot sensatie